Time;durP1;ratioP1;P1;durP2;ratioP2;P2;SDS_P1;SDS_P2;PMS_P1;PMS_P2;Temp;Humidity;BMP_temperature;BMP_pressure;BME280_temperature;BME280_humidity;BME280_pressure;Samples;Min_cycle;Max_cycle;Signal;HPM_P1;HPM_P2
2021/04/29 00:00:36;;;;;;;9.40;6.13;;;15.00;52.40;;;;;;6168906;23;20347;-72
2021/04/29 00:03:02;;;;;;;11.45;6.70;;;15.10;52.50;;;;;;6158901;23;20017;-72
2021/04/29 00:05:28;;;;;;;8.13;5.68;;;15.00;52.50;;;;;;6168963;23;20009;-72
2021/04/29 00:07:55;;;;;;;8.02;5.93;;;15.00;52.50;;;;;;6160372;23;20013;-72
2021/04/29 00:10:25;;;;;;;8.98;6.32;;;15.00;52.60;;;;;;6159779;23;20026;-72
2021/04/29 00:12:51;;;;;;;10.57;6.78;;;15.00;52.60;;;;;;6158744;23;20040;-72
2021/04/29 00:15:17;;;;;;;6.85;5.63;;;15.00;52.70;;;;;;6169433;23;20032;-72
2021/04/29 00:17:44;;;;;;;8.07;5.88;;;15.00;52.70;;;;;;6159577;23;20014;-72
2021/04/29 00:20:17;;;;;;;11.13;6.93;;;15.00;52.70;;;;;;6169687;23;20442;-73
2021/04/29 00:22:44;;;;;;;9.68;6.55;;;15.00;52.80;;;;;;6164451;23;20024;-72
2021/04/29 00:25:11;;;;;;;12.55;6.90;;;15.00;52.80;;;;;;6169693;23;20020;-72
2021/04/29 00:27:36;;;;;;;10.07;6.57;;;15.00;52.90;;;;;;6168862;23;20013;-72
2021/04/29 00:30:04;;;;;;;9.45;6.30;;;15.00;53.60;;;;;;6168144;23;20019;-72
2021/04/29 00:32:30;;;;;;;12.50;7.13;;;14.90;52.90;;;;;;6158577;23;20021;-73
2021/04/29 00:34:56;;;;;;;10.10;7.10;;;14.90;52.90;;;;;;6168468;23;20056;-73
2021/04/29 00:37:22;;;;;;;11.02;7.68;;;14.90;52.90;;;;;;6158518;23;20048;-73
2021/04/29 00:39:47;;;;;;;10.13;7.75;;;14.90;52.90;;;;;;6169266;23;20013;-72
2021/04/29 00:42:14;;;;;;;8.68;6.40;;;14.90;53.00;;;;;;6168426;23;20025;-73
2021/04/29 00:44:40;;;;;;;9.98;6.93;;;14.90;53.00;;;;;;6161516;23;20036;-72
2021/04/29 00:47:06;;;;;;;9.43;6.93;;;14.90;53.00;;;;;;6168769;23;20014;-72
2021/04/29 00:49:33;;;;;;;10.55;7.00;;;14.90;53.00;;;;;;6158704;23;20014;-72
2021/04/29 00:52:00;;;;;;;8.75;6.80;;;14.90;53.00;;;;;;6158862;23;20040;-72
2021/04/29 00:54:26;;;;;;;9.80;7.15;;;14.90;53.00;;;;;;6168545;23;20010;-72
2021/04/29 00:56:51;;;;;;;11.07;7.05;;;14.90;53.00;;;;;;6159257;23;20363;-72
2021/04/29 00:59:18;;;;;;;10.35;7.05;;;14.90;53.00;;;;;;6168086;23;20017;-73
2021/04/29 01:01:47;;;;;;;11.13;6.95;;;14.90;53.00;;;;;;6168768;23;20272;-72
2021/04/29 01:04:22;;;;;;;10.93;6.97;;;14.90;53.10;;;;;;6169208;23;20076;-72
2021/04/29 01:07:12;;;;;;;13.57;7.50;;;14.90;53.10;;;;;;6168559;23;20086;-72
2021/04/29 01:09:45;;;;;;;9.40;6.90;;;14.90;53.10;;;;;;6168847;23;20017;-72
2021/04/29 01:12:29;;;;;;;11.63;7.05;;;14.90;53.20;;;;;;6168610;23;20014;-72
2021/04/29 01:14:57;;;;;;;8.85;6.65;;;14.90;53.30;;;;;;6168891;23;20014;-72
2021/04/29 01:17:24;;;;;;;9.35;7.13;;;14.90;53.30;;;;;;6168355;23;20013;-72
2021/04/29 01:20:03;;;;;;;10.48;7.40;;;14.90;53.30;;;;;;6167728;23;20526;-72
2021/04/29 01:22:30;;;;;;;10.48;7.82;;;14.90;53.40;;;;;;6158099;23;20029;-72
2021/04/29 01:25:09;;;;;;;11.55;7.03;;;14.80;53.40;;;;;;6158319;23;20022;-72
2021/04/29 01:27:36;;;;;;;9.13;6.60;;;14.80;53.40;;;;;;6158040;23;20442;-72
2021/04/29 01:30:09;;;;;;;10.65;7.38;;;14.80;53.40;;;;;;6168000;23;20017;-72
2021/04/29 01:32:37;;;;;;;10.98;7.63;;;14.80;53.50;;;;;;6157998;23;20017;-72
2021/04/29 01:35:07;;;;;;;10.80;7.07;;;14.80;53.50;;;;;;6158240;23;20072;-72
2021/04/29 01:37:34;;;;;;;8.57;6.65;;;14.80;53.60;;;;;;6167906;23;20403;-73
2021/04/29 01:40:02;;;;;;;9.30;7.28;;;14.80;53.60;;;;;;6133397;23;20056;-72
2021/04/29 01:42:28;;;;;;;10.23;7.45;;;14.80;53.70;;;;;;6167729;23;20311;-72
2021/04/29 01:44:55;;;;;;;14.48;7.80;;;14.80;53.80;;;;;;6160600;23;20019;-73
2021/04/29 01:47:21;;;;;;;10.70;7.05;;;14.80;53.80;;;;;;6168209;23;20013;-72
2021/04/29 01:49:47;;;;;;;9.13;7.32;;;14.80;53.80;;;;;;6168628;23;20352;-73
2021/04/29 01:52:14;;;;;;;9.43;7.50;;;14.80;53.80;;;;;;6157881;23;20093;-72
2021/04/29 01:54:41;;;;;;;10.90;7.88;;;14.80;53.80;;;;;;6168194;23;20052;-72
2021/04/29 01:57:07;;;;;;;10.90;7.88;;;14.80;54.50;;;;;;6168039;23;20013;-72
2021/04/29 01:59:33;;;;;;;11.48;7.10;;;14.80;53.80;;;;;;6167912;23;20072;-72
2021/04/29 02:01:59;;;;;;;11.88;8.18;;;14.80;53.90;;;;;;6167891;23;20021;-72
2021/04/29 02:04:25;;;;;;;12.38;7.97;;;14.80;53.90;;;;;;6168219;23;20017;-72
2021/04/29 02:06:51;;;;;;;11.88;7.57;;;14.70;53.90;;;;;;6167553;23;20064;-72
2021/04/29 02:09:17;;;;;;;13.13;8.05;;;14.70;54.00;;;;;;6167439;23;20014;-72
2021/04/29 02:11:59;;;;;;;13.75;7.82;;;14.80;54.00;;;;;;6168047;23;20020;-72
2021/04/29 02:14:32;;;;;;;9.90;7.75;;;14.70;54.00;;;;;;6168032;23;20025;-72
2021/04/29 02:16:59;;;;;;;;;;;14.70;54.10;;;;;;6168604;23;20017;-72
2021/04/29 02:19:27;;;;;;;18.70;7.60;;;14.70;54.00;;;;;;6167850;23;19913;-73
2021/04/29 02:21:53;;;;;;;10.32;7.78;;;14.70;54.10;;;;;;6167528;23;20015;-72
2021/04/29 02:24:21;;;;;;;10.73;7.35;;;14.70;54.10;;;;;;6167762;23;20017;-72
2021/04/29 02:26:50;;;;;;;10.55;7.55;;;14.70;54.10;;;;;;6167377;23;20020;-72
2021/04/29 02:29:16;;;;;;;11.55;7.70;;;14.70;54.10;;;;;;6167679;23;20005;-72
2021/04/29 02:31:46;;;;;;;9.32;6.43;;;14.70;54.10;;;;;;6167517;23;20016;-72
2021/04/29 02:34:15;;;;;;;10.63;6.95;;;14.70;54.10;;;;;;6168641;23;20073;-72
2021/04/29 02:36:41;;;;;;;11.70;6.68;;;14.70;54.10;;;;;;6168454;23;20084;-72
2021/04/29 02:39:07;;;;;;;10.48;6.85;;;14.70;54.10;;;;;;6167846;23;20010;-72
2021/04/29 02:41:33;;;;;;;9.38;6.50;;;14.70;54.10;;;;;;6168596;23;20079;-72
2021/04/29 02:44:00;;;;;;;8.48;6.22;;;14.70;54.10;;;;;;6163383;23;20469;-72
2021/04/29 02:46:27;;;;;;;10.10;7.05;;;14.70;54.10;;;;;;6168006;23;20009;-72
2021/04/29 02:48:53;;;;;;;11.63;6.68;;;14.60;54.10;;;;;;6167526;23;20018;-72
2021/04/29 02:51:20;;;;;;;10.18;6.47;;;14.70;54.10;;;;;;6168258;23;20091;-72
2021/04/29 02:53:46;;;;;;;9.05;6.55;;;14.70;54.10;;;;;;6168291;23;20009;-72
2021/04/29 02:56:12;;;;;;;9.68;6.35;;;14.70;54.10;;;;;;6169809;23;20013;-72
2021/04/29 02:58:46;;;;;;;10.50;6.55;;;14.60;54.00;;;;;;6169172;23;20071;-72
2021/04/29 03:01:13;;;;;;;10.20;6.28;;;14.70;54.20;;;;;;6159726;23;20048;-72
2021/04/29 03:03:40;;;;;;;13.75;6.85;;;14.60;54.10;;;;;;6169327;23;20017;-72
2021/04/29 03:06:06;;;;;;;9.35;6.93;;;14.60;54.30;;;;;;6159823;23;20013;-72
2021/04/29 03:08:33;;;;;;;9.63;7.43;;;14.60;54.30;;;;;;6169522;23;20319;-72
2021/04/29 03:11:00;;;;;;;11.65;7.28;;;14.60;54.30;;;;;;6169253;23;20079;-72
2021/04/29 03:13:26;;;;;;;10.52;6.85;;;14.60;54.30;;;;;;6171112;23;20020;-71
2021/04/29 03:15:52;;;;;;;11.35;7.10;;;14.60;54.30;;;;;;6169622;23;20399;-72
2021/04/29 03:18:18;;;;;;;10.35;7.25;;;14.60;54.30;;;;;;6169430;23;20009;-72
2021/04/29 03:20:44;;;;;;;10.82;6.43;;;14.60;54.30;;;;;;6169722;23;20084;-72
2021/04/29 03:23:09;;;;;;;11.75;6.78;;;14.60;54.30;;;;;;6169557;23;20023;-72
2021/04/29 03:25:36;;;;;;;7.78;6.35;;;14.60;54.40;;;;;;6169181;23;20433;-72
2021/04/29 03:28:02;;;;;;;10.05;6.38;;;14.60;54.40;;;;;;6158904;23;20088;-72
2021/04/29 03:30:29;;;;;;;15.00;6.72;;;14.50;54.40;;;;;;6169729;23;20049;-72
2021/04/29 03:32:55;;;;;;;10.07;7.00;;;14.50;54.40;;;;;;6169361;23;20025;-72
2021/04/29 03:35:21;;;;;;;9.57;5.93;;;14.50;54.50;;;;;;6169691;23;20010;-72
2021/04/29 03:37:46;;;;;;;9.25;6.90;;;14.50;54.50;;;;;;6169963;23;20041;-72
2021/04/29 03:40:13;;;;;;;11.43;6.70;;;14.50;54.60;;;;;;6169143;23;20173;-72
2021/04/29 03:42:39;;;;;;;10.10;7.13;;;14.50;54.70;;;;;;6169230;23;20010;-72
2021/04/29 03:45:08;;;;;;;10.90;7.15;;;14.50;54.80;;;;;;6160701;23;20387;-72
2021/04/29 03:47:34;;;;;;;10.32;6.32;;;14.50;54.80;;;;;;6169304;23;20013;-72
2021/04/29 03:50:00;;;;;;;9.90;6.68;;;14.50;54.80;;;;;;6168633;23;20024;-72
2021/04/29 03:52:25;;;;;;;9.95;6.22;;;14.50;54.80;;;;;;6169977;23;20064;-72
2021/04/29 03:54:51;;;;;;;13.15;6.43;;;14.50;54.90;;;;;;6169424;23;20095;-72
2021/04/29 03:57:17;;;;;;;11.20;6.30;;;14.50;54.90;;;;;;6168955;23;20013;-73
2021/04/29 03:59:43;;;;;;;8.98;5.70;;;14.50;55.00;;;;;;6158359;23;20277;-72
2021/04/29 04:02:11;;;;;;;8.68;6.35;;;14.50;55.10;;;;;;6168850;23;20024;-72
2021/04/29 04:04:36;;;;;;;10.38;6.60;;;14.50;55.10;;;;;;6143511;23;20013;-73
2021/04/29 04:07:02;;;;;;;10.43;6.95;;;14.50;55.30;;;;;;6168790;23;20024;-72
2021/04/29 04:09:28;;;;;;;10.45;6.32;;;14.50;55.30;;;;;;6168960;23;20052;-72
2021/04/29 04:11:54;;;;;;;10.05;6.88;;;14.50;55.40;;;;;;6143412;23;20024;-72
2021/04/29 04:14:20;;;;;;;10.07;6.88;;;14.50;55.40;;;;;;6143590;23;20021;-72
2021/04/29 04:16:46;;;;;;;9.93;6.93;;;14.50;55.50;;;;;;6168767;23;20037;-72
2021/04/29 04:19:11;;;;;;;8.88;7.15;;;14.50;55.50;;;;;;6168895;23;20018;-72
2021/04/29 04:21:37;;;;;;;10.95;7.25;;;14.50;55.50;;;;;;6168972;23;20076;-72
2021/04/29 04:24:03;;;;;;;8.45;6.18;;;14.50;55.60;;;;;;6169039;23;20009;-72
2021/04/29 04:26:29;;;;;;;13.52;7.32;;;14.40;55.50;;;;;;6168997;23;20017;-72
2021/04/29 04:28:56;;;;;;;11.88;6.72;;;14.50;55.60;;;;;;6159076;23;20025;-72
2021/04/29 04:31:21;;;;;;;13.18;7.43;;;14.40;55.60;;;;;;6159813;23;20010;-72
2021/04/29 04:33:49;;;;;;;12.00;7.70;;;14.40;55.60;;;;;;6168414;23;20335;-72
2021/04/29 04:36:14;;;;;;;10.98;7.35;;;14.40;55.70;;;;;;6168774;23;20009;-72
2021/04/29 04:38:40;;;;;;;11.70;7.63;;;14.40;55.70;;;;;;6168849;23;20013;-72
2021/04/29 04:41:07;;;;;;;10.55;6.82;;;14.40;55.70;;;;;;6158888;23;20084;-73
2021/04/29 04:43:33;;;;;;;12.32;8.02;;;14.40;55.70;;;;;;6140291;23;20327;-72
2021/04/29 04:45:58;;;;;;;14.60;7.13;;;14.40;55.80;;;;;;6168660;23;20381;-73
2021/04/29 04:48:24;;;;;;;16.42;7.05;;;14.40;55.90;;;;;;6169360;23;20037;-72
2021/04/29 04:50:50;;;;;;;18.30;6.75;;;14.40;55.90;;;;;;6167806;23;20303;-74
2021/04/29 04:53:16;;;;;;;18.65;5.75;;;14.50;56.10;;;;;;6168413;23;20013;-72
2021/04/29 04:55:47;;;;;;;14.88;5.32;;;14.50;56.10;;;;;;6168347;23;20009;-74
2021/04/29 04:58:13;;;;;;;12.98;5.65;;;14.70;56.20;;;;;;6168223;23;20023;-74
2021/04/29 05:00:39;;;;;;;14.63;5.10;;;14.80;56.20;;;;;;6168988;23;20299;-74
2021/04/29 05:03:06;;;;;;;16.83;4.78;;;15.10;56.30;;;;;;6168382;23;20037;-71
2021/04/29 05:05:32;;;;;;;13.63;4.40;;;15.30;56.30;;;;;;6168618;23;20014;-73
2021/04/29 05:08:00;;;;;;;11.88;3.88;;;15.60;56.40;;;;;;6168414;23;20013;-76
2021/04/29 05:10:27;;;;;;;13.20;4.28;;;15.90;56.70;;;;;;6168117;23;20013;-72
2021/04/29 05:12:53;;;;;;;12.65;4.65;;;16.00;56.60;;;;;;6168241;23;20407;-73
2021/04/29 05:15:20;;;;;;;10.23;3.92;;;16.20;56.70;;;;;;6168656;23;20013;-72
2021/04/29 05:17:46;;;;;;;8.80;3.55;;;16.20;56.80;;;;;;6167817;23;20402;-70
2021/04/29 05:20:12;;;;;;;7.88;3.50;;;16.30;56.70;;;;;;6168282;23;20014;-71
2021/04/29 05:22:38;;;;;;;8.93;3.75;;;16.30;56.70;;;;;;6168066;23;20017;-73
2021/04/29 05:25:04;;;;;;;14.20;3.75;;;16.40;57.00;;;;;;6168084;23;20347;-70
2021/04/29 05:27:30;;;;;;;12.65;4.18;;;16.40;57.20;;;;;;6158364;23;20149;-73
2021/04/29 05:29:55;;;;;;;6.68;3.13;;;16.10;56.10;;;;;;6168118;23;20020;-72
2021/04/29 05:32:21;;;;;;;7.10;3.38;;;16.20;57.30;;;;;;6158251;23;20018;-75
2021/04/29 05:34:47;;;;;;;6.40;3.38;;;16.30;57.60;;;;;;6167901;23;20037;-72
2021/04/29 05:37:13;;;;;;;5.05;2.83;;;16.40;57.50;;;;;;6168482;23;20009;-76
2021/04/29 05:39:39;;;;;;;11.25;3.58;;;16.50;57.50;;;;;;6168022;23;20344;-71
2021/04/29 05:42:05;;;;;;;12.57;4.97;;;16.60;57.40;;;;;;6167991;23;20101;-72
2021/04/29 05:44:30;;;;;;;7.65;3.60;;;16.30;52.40;;;;;;6158343;23;20043;-72
2021/04/29 05:46:56;;;;;;;9.18;2.95;;;16.20;56.60;;;;;;6167505;23;20482;-74
2021/04/29 05:49:22;;;;;;;8.88;3.20;;;16.40;57.20;;;;;;6168148;23;20009;-73
2021/04/29 05:51:48;;;;;;;7.38;2.90;;;16.60;57.30;;;;;;6167831;23;20407;-73
2021/04/29 05:54:14;;;;;;;15.00;3.67;;;16.40;56.10;;;;;;6167833;23;20013;-74
2021/04/29 05:56:40;;;;;;;8.65;3.05;;;16.70;57.30;;;;;;6168624;23;20048;-75
2021/04/29 05:59:06;;;;;;;4.95;2.55;;;16.90;57.30;;;;;;6167890;23;20017;-73
2021/04/29 06:01:32;;;;;;;8.85;2.95;;;17.10;57.10;;;;;;6167916;23;20079;-71
2021/04/29 06:03:58;;;;;;;9.20;3.70;;;16.90;56.40;;;;;;6167509;23;20076;-73
2021/04/29 06:06:24;;;;;;;9.35;3.70;;;16.80;55.90;;;;;;6167917;23;20017;-76
2021/04/29 06:08:51;;;;;;;9.52;3.10;;;16.90;57.20;;;;;;6167901;23;20016;-77
2021/04/29 06:11:17;;;;;;;8.95;3.38;;;17.00;57.80;;;;;;6168012;23;20025;-76
2021/04/29 06:13:44;;;;;;;6.85;2.85;;;17.20;57.70;;;;;;6158702;23;20024;-75
2021/04/29 06:16:14;;;;;;;7.90;2.92;;;17.40;57.70;;;;;;6167495;23;20403;-75
2021/04/29 06:18:41;;;;;;;8.40;2.72;;;17.40;57.60;;;;;;6157756;23;20439;-75
2021/04/29 06:21:07;;;;;;;8.60;2.50;;;17.50;57.80;;;;;;6168583;23;20013;-76
2021/04/29 06:23:33;;;;;;;8.73;3.15;;;17.60;58.00;;;;;;6157672;23;20009;-72
2021/04/29 06:26:00;;;;;;;6.38;2.72;;;17.60;58.20;;;;;;6157901;23;20013;-73
2021/04/29 06:28:29;;;;;;;10.52;3.40;;;17.60;58.00;;;;;;6167338;23;20010;-74
2021/04/29 06:30:55;;;;;;;15.15;3.42;;;17.70;58.10;;;;;;6168534;23;20010;-79
2021/04/29 06:33:24;;;;;;;13.48;3.50;;;17.80;58.40;;;;;;6166893;23;20084;-73
2021/04/29 06:35:52;;;;;;;13.30;3.08;;;17.80;57.80;;;;;;6141286;23;20013;-78
2021/04/29 06:38:18;;;;;;;19.60;3.90;;;17.90;58.00;;;;;;6167405;23;20017;-80
2021/04/29 06:40:44;;;;;;;16.10;3.78;;;18.00;58.00;;;;;;6167340;23;20076;-78
2021/04/29 06:43:10;;;;;;;17.33;3.10;;;17.80;57.50;;;;;;6140587;23;20017;-78
2021/04/29 06:45:36;;;;;;;16.15;3.55;;;17.90;58.00;;;;;;6166173;23;20010;-77
2021/04/29 06:48:02;;;;;;;19.90;3.53;;;17.90;58.10;;;;;;6167938;23;20407;-75
2021/04/29 06:50:28;;;;;;;20.33;3.85;;;17.90;57.90;;;;;;6167554;23;20021;-74
2021/04/29 06:52:54;;;;;;;12.75;3.30;;;18.00;57.80;;;;;;6157896;23;20014;-75
2021/04/29 06:55:20;;;;;;;12.57;3.13;;;18.10;57.80;;;;;;6167418;23;20009;-73
2021/04/29 06:57:46;;;;;;;14.73;3.40;;;18.10;57.60;;;;;;6167275;23;20021;-74
2021/04/29 07:00:13;;;;;;;15.88;3.90;;;18.20;57.40;;;;;;6168105;23;20014;-74
2021/04/29 07:02:39;;;;;;;14.68;3.60;;;18.20;57.30;;;;;;6167939;23;20083;-73
2021/04/29 07:05:05;;;;;;;15.77;3.10;;;18.20;57.10;;;;;;6167702;23;20013;-73
2021/04/29 07:07:31;;;;;;;14.45;3.08;;;18.20;56.80;;;;;;6157937;23;20072;-73
2021/04/29 07:09:57;;;;;;;16.33;3.25;;;18.30;56.60;;;;;;6157498;23;20411;-73
2021/04/29 07:12:22;;;;;;;14.18;3.10;;;18.30;56.40;;;;;;6167841;23;20020;-73
2021/04/29 07:14:48;;;;;;;16.70;2.90;;;18.30;56.30;;;;;;6168043;23;20151;-74
2021/04/29 07:17:14;;;;;;;12.10;3.85;;;18.20;56.10;;;;;;6167303;23;20013;-74
2021/04/29 07:19:40;;;;;;;13.75;3.45;;;18.20;56.00;;;;;;6142127;23;20013;-74
2021/04/29 07:22:06;;;;;;;7.63;2.60;;;18.20;56.00;;;;;;6167470;23;20013;-73
2021/04/29 07:24:32;;;;;;;9.48;2.80;;;18.30;55.90;;;;;;6167223;23;20014;-73
2021/04/29 07:27:00;;;;;;;11.70;2.72;;;18.30;55.80;;;;;;6167998;23;20084;-73
2021/04/29 07:29:26;;;;;;;9.98;3.08;;;18.30;56.40;;;;;;6157966;23;20028;-73
2021/04/29 07:31:51;;;;;;;6.93;2.63;;;18.20;55.60;;;;;;6166686;23;20013;-73
2021/04/29 07:34:17;;;;;;;6.65;2.10;;;18.20;55.70;;;;;;6156776;23;20024;-73
2021/04/29 07:36:43;;;;;;;9.73;2.78;;;18.20;55.70;;;;;;6167380;23;20020;-73
2021/04/29 07:39:09;;;;;;;10.27;2.30;;;18.20;55.70;;;;;;6167593;23;20024;-73
2021/04/29 07:41:35;;;;;;;8.80;2.80;;;18.20;55.70;;;;;;6169016;23;20037;-74
2021/04/29 07:44:01;;;;;;;6.15;2.63;;;18.20;55.70;;;;;;6165072;23;20010;-73
2021/04/29 07:46:28;;;;;;;13.73;3.85;;;18.20;55.80;;;;;;6168878;23;20295;-74
2021/04/29 07:48:53;;;;;;;13.95;2.92;;;18.10;55.80;;;;;;6169086;23;20018;-74
2021/04/29 07:51:19;;;;;;;14.05;2.97;;;18.10;55.80;;;;;;6169242;23;20096;-75
2021/04/29 07:53:45;;;;;;;12.50;2.85;;;18.10;55.80;;;;;;6159925;23;20400;-75
2021/04/29 07:56:11;;;;;;;15.07;3.20;;;18.20;55.80;;;;;;6169154;23;20423;-75
2021/04/29 07:58:37;;;;;;;14.68;3.20;;;18.20;55.60;;;;;;6168986;23;20320;-76
2021/04/29 08:01:02;;;;;;;11.18;2.63;;;18.20;55.60;;;;;;6159321;23;20080;-76
2021/04/29 08:03:28;;;;;;;16.42;3.55;;;18.20;55.50;;;;;;6168919;23;20041;-76
2021/04/29 08:05:55;;;;;;;10.18;2.83;;;18.20;55.80;;;;;;6169149;23;20037;-76
2021/04/29 08:08:20;;;;;;;12.73;2.50;;;18.20;55.90;;;;;;6159850;23;20017;-75
2021/04/29 08:10:46;;;;;;;8.10;2.08;;;18.20;56.00;;;;;;6159674;23;20017;-75
2021/04/29 08:13:12;;;;;;;20.83;4.10;;;18.20;56.00;;;;;;6168994;23;20024;-75
2021/04/29 08:15:40;;;;;;;5.85;2.85;;;17.90;53.80;;;;;;6168840;23;20284;-75
2021/04/29 08:18:06;;;;;;;10.07;2.78;;;17.60;55.70;;;;;;6168935;23;20014;-75
2021/04/29 08:20:32;;;;;;;15.00;3.38;;;17.70;56.60;;;;;;6169115;23;20043;-75
2021/04/29 08:22:58;;;;;;;16.20;3.40;;;17.70;57.30;;;;;;6168819;23;20080;-75
2021/04/29 08:25:24;;;;;;;25.00;3.78;;;17.90;56.60;;;;;;6168421;23;20021;-76
2021/04/29 08:27:50;;;;;;;16.70;3.95;;;18.00;56.20;;;;;;6168899;23;20084;-76
2021/04/29 08:30:16;;;;;;;20.73;4.22;;;17.40;54.30;;;;;;6158531;23;20014;-75
2021/04/29 08:32:42;;;;;;;20.98;3.90;;;17.40;56.50;;;;;;6133495;23;20017;-75
2021/04/29 08:35:08;;;;;;;24.65;4.18;;;17.50;56.70;;;;;;6169353;23;20269;-75
2021/04/29 08:37:35;;;;;;;22.65;4.38;;;17.60;56.60;;;;;;6159786;23;20021;-76
2021/04/29 08:40:02;;;;;;;15.20;3.60;;;17.80;56.50;;;;;;6159208;23;20090;-76
2021/04/29 08:42:28;;;;;;;18.70;4.03;;;17.90;56.10;;;;;;6158488;23;20021;-75
2021/04/29 08:44:54;;;;;;;17.40;3.75;;;18.10;55.90;;;;;;6160753;23;20071;-76
2021/04/29 08:47:20;;;;;;;23.20;3.80;;;18.10;55.70;;;;;;6168521;23;20344;-76
2021/04/29 08:49:47;;;;;;;14.70;3.22;;;18.10;55.60;;;;;;6168827;23;20099;-76
2021/04/29 08:52:15;;;;;;;16.73;3.20;;;18.10;55.50;;;;;;6168082;23;20272;-76
2021/04/29 08:54:46;;;;;;;15.55;3.72;;;18.20;55.50;;;;;;6169446;23;20119;-76
2021/04/29 08:57:13;;;;;;;12.77;3.50;;;18.20;55.30;;;;;;6168975;23;20015;-75
2021/04/29 08:59:40;;;;;;;10.93;3.22;;;18.20;55.30;;;;;;6168651;23;20010;-77
2021/04/29 09:02:06;;;;;;;12.43;3.15;;;18.30;55.30;;;;;;6159387;23;20080;-77
2021/04/29 09:04:44;;;;;;;18.33;3.63;;;18.30;55.30;;;;;;6169159;23;20403;-75
2021/04/29 09:07:15;;;;;;;11.65;4.32;;;18.30;55.20;;;;;;6168621;23;20347;-76
2021/04/29 09:09:45;;;;;;;20.10;4.47;;;18.10;53.90;;;;;;6168472;23;20037;-76
2021/04/29 09:12:12;;;;;;;20.63;3.30;;;18.20;55.20;;;;;;6168404;23;20029;-76
2021/04/29 09:14:39;;;;;;;15.60;3.67;;;18.20;55.40;;;;;;6169239;23;20009;-76
2021/04/29 09:17:06;;;;;;;23.92;4.00;;;18.20;55.40;;;;;;6168133;23;20092;-75
2021/04/29 09:19:35;;;;;;;22.60;4.78;;;18.20;56.10;;;;;;6158952;23;20269;-76
2021/04/29 09:22:04;;;;;;;24.48;3.72;;;18.20;55.00;;;;;;6168736;23;20013;-76
2021/04/29 09:24:36;;;;;;;20.58;3.70;;;18.20;55.30;;;;;;6168397;23;20041;-76
2021/04/29 09:27:13;;;;;;;25.67;3.83;;;18.10;55.30;;;;;;6168177;23;20033;-76
2021/04/29 09:30:09;;;;;;;19.83;3.65;;;18.10;55.50;;;;;;6168008;23;20092;-76
2021/04/29 09:32:36;;;;;;;17.90;4.28;;;18.10;55.60;;;;;;6135320;23;20093;-75
2021/04/29 09:35:06;;;;;;;16.35;3.83;;;18.10;55.60;;;;;;6158457;23;20017;-75
2021/04/29 09:37:40;;;;;;;18.15;3.70;;;18.10;55.60;;;;;;6168918;23;20017;-76
2021/04/29 09:40:18;;;;;;;;;;;18.10;55.70;;;;;;6168785;23;20470;-77
2021/04/29 09:42:46;;;;;;;23.00;3.22;;;18.10;55.60;;;;;;6168273;23;19912;-76
2021/04/29 09:45:35;;;;;;;13.68;3.28;;;18.00;55.70;;;;;;6159098;23;20013;-76
2021/04/29 09:48:08;;;;;;;17.77;3.40;;;18.10;55.90;;;;;;6167466;23;20017;-76
2021/04/29 09:50:46;;;;;;;14.45;3.53;;;18.10;55.80;;;;;;6168100;23;20025;-76
2021/04/29 09:53:19;;;;;;;12.32;3.28;;;18.10;55.70;;;;;;6168272;23;20013;-76
2021/04/29 09:55:54;;;;;;;12.10;3.22;;;18.20;55.80;;;;;;6167820;23;20025;-76
2021/04/29 09:58:29;;;;;;;12.18;3.35;;;18.10;55.70;;;;;;6167740;23;20067;-76
2021/04/29 10:00:55;;;;;;;17.85;3.60;;;18.10;55.70;;;;;;6167754;23;20339;-77
2021/04/29 10:03:21;;;;;;;18.73;4.47;;;18.10;55.80;;;;;;6157773;23;20013;-76
2021/04/29 10:05:54;;;;;;;13.35;3.55;;;18.20;55.80;;;;;;6168085;23;20016;-76
2021/04/29 10:08:32;;;;;;;14.15;3.15;;;18.10;55.70;;;;;;6158215;23;20069;-76
2021/04/29 10:11:00;;;;;;;15.63;3.38;;;18.20;55.70;;;;;;6168757;23;20020;-75
2021/04/29 10:13:31;;;;;;;12.00;3.50;;;18.20;55.70;;;;;;6167981;23;20020;-76
2021/04/29 10:15:57;;;;;;;19.95;4.07;;;18.10;55.70;;;;;;6168096;23;20016;-76
2021/04/29 10:18:27;;;;;;;16.10;3.47;;;18.10;55.70;;;;;;6167653;23;20087;-76
2021/04/29 10:21:04;;;;;;;10.35;3.33;;;18.20;56.40;;;;;;6167868;23;20084;-76
2021/04/29 10:23:30;;;;;;;8.70;3.00;;;18.10;55.70;;;;;;6168238;23;20013;-76
2021/04/29 10:26:00;;;;;;;11.68;3.85;;;18.10;55.70;;;;;;6167982;23;20085;-75
2021/04/29 10:28:34;;;;;;;11.40;4.10;;;17.80;55.60;;;;;;6167499;23;20092;-77
2021/04/29 10:31:13;;;;;;;15.65;3.83;;;17.90;56.10;;;;;;6167565;23;20298;-75
2021/04/29 10:33:46;;;;;;;11.00;3.08;;;17.60;55.80;;;;;;6157826;23;20084;-76
2021/04/29 10:36:13;;;;;;;22.42;3.97;;;17.70;56.20;;;;;;6167524;23;20010;-75
2021/04/29 10:38:39;;;;;;;13.73;2.90;;;17.90;56.30;;;;;;6167507;23;20453;-75
2021/04/29 10:41:24;;;;;;;13.23;3.22;;;17.90;56.10;;;;;;6167455;23;20009;-76
2021/04/29 10:43:53;;;;;;;12.50;3.78;;;17.90;56.00;;;;;;6164023;23;20136;-75
2021/04/29 10:46:31;;;;;;;7.13;3.15;;;18.00;56.00;;;;;;6167273;23;20419;-76
2021/04/29 10:49:00;;;;;;;13.35;3.60;;;18.00;56.00;;;;;;6167746;23;20283;-75
2021/04/29 10:51:35;;;;;;;10.07;3.20;;;18.00;55.90;;;;;;6167295;23;20017;-76
2021/04/29 10:54:21;;;;;;;10.60;3.22;;;18.10;56.00;;;;;;6157394;23;20410;-75
2021/04/29 10:57:08;;;;;;;8.98;2.88;;;18.10;56.00;;;;;;6141914;23;20013;-75
2021/04/29 10:59:52;;;;;;;19.30;3.60;;;18.10;56.00;;;;;;6167678;23;20044;-78
2021/04/29 11:02:24;;;;;;;12.70;3.53;;;18.00;56.00;;;;;;6157580;23;20315;-76
2021/04/29 11:04:52;;;;;;;12.90;3.20;;;18.10;55.90;;;;;;6157262;23;20034;-76
2021/04/29 11:07:20;;;;;;;11.70;3.53;;;18.10;55.80;;;;;;6157495;23;20009;-76
2021/04/29 11:10:09;;;;;;;9.10;3.55;;;18.10;55.70;;;;;;6167534;23;20433;-75
2021/04/29 11:12:54;;;;;;;10.45;2.88;;;18.10;55.70;;;;;;6167935;23;20028;-75
2021/04/29 11:15:30;;;;;;;20.33;4.55;;;18.20;55.70;;;;;;6168445;23;20013;-74
2021/04/29 11:18:15;;;;;;;25.98;4.88;;;18.10;55.50;;;;;;6159439;23;20041;-73
2021/04/29 11:20:46;;;;;;;15.63;4.25;;;18.10;55.60;;;;;;6169635;23;20068;-74
2021/04/29 11:23:28;;;;;;;12.50;4.43;;;18.10;55.60;;;;;;6169390;23;20040;-74
2021/04/29 11:26:09;;;;;;;17.30;4.10;;;18.10;55.70;;;;;;6169991;23;20033;-74
2021/04/29 11:28:36;;;;;;;13.25;3.65;;;18.10;55.70;;;;;;6169855;23;20016;-74
2021/04/29 11:31:02;;;;;;;12.40;3.80;;;18.20;55.70;;;;;;6159248;23;20017;-74
2021/04/29 11:33:39;;;;;;;15.85;4.35;;;18.20;55.80;;;;;;6158957;23;20083;-74
2021/04/29 11:36:21;;;;;;;10.18;3.33;;;18.10;55.90;;;;;;6169402;23;20020;-73
2021/04/29 11:38:59;;;;;;;9.73;3.75;;;18.10;55.90;;;;;;6160134;23;20009;-74
2021/04/29 11:41:27;;;;;;;10.13;3.83;;;18.10;56.00;;;;;;6169370;23;20021;-74
2021/04/29 11:44:06;;;;;;;9.55;3.35;;;18.10;56.00;;;;;;6164939;23;20303;-74
2021/04/29 11:46:36;;;;;;;11.60;3.55;;;18.10;56.00;;;;;;6169369;23;20013;-74
2021/04/29 11:49:07;;;;;;;9.70;3.40;;;18.10;56.10;;;;;;6168793;23;20084;-74
2021/04/29 11:51:43;;;;;;;12.27;3.22;;;18.10;56.00;;;;;;6169319;23;20013;-74
2021/04/29 11:54:09;;;;;;;13.43;3.67;;;18.10;56.20;;;;;;6169999;23;20088;-73
2021/04/29 11:56:36;;;;;;;11.20;3.17;;;18.10;56.00;;;;;;6143807;23;20049;-75
2021/04/29 11:59:04;;;;;;;10.75;3.63;;;18.10;56.00;;;;;;6169809;23;20029;-72
2021/04/29 12:01:30;;;;;;;9.55;3.35;;;18.00;55.90;;;;;;6169149;23;20028;-72
2021/04/29 12:03:56;;;;;;;12.10;3.30;;;18.00;56.00;;;;;;6169757;23;20009;-72
2021/04/29 12:06:23;;;;;;;12.35;3.65;;;18.00;56.10;;;;;;6169577;23;20028;-72
2021/04/29 12:08:49;;;;;;;16.30;4.10;;;18.00;56.10;;;;;;6169477;23;20005;-72
2021/04/29 12:11:16;;;;;;;15.00;3.20;;;17.90;56.10;;;;;;6169268;23;20040;-72
2021/04/29 12:13:46;;;;;;;10.95;3.15;;;17.90;56.10;;;;;;6168763;23;20311;-72
2021/04/29 12:16:16;;;;;;;8.68;3.70;;;17.80;56.10;;;;;;6169828;23;20009;-72
2021/04/29 12:18:46;;;;;;;15.25;3.35;;;17.80;56.10;;;;;;6169564;23;20327;-72
2021/04/29 12:21:13;;;;;;;9.93;3.10;;;17.80;56.30;;;;;;6169173;23;20021;-72
2021/04/29 12:23:39;;;;;;;7.90;3.03;;;17.70;56.30;;;;;;6169054;23;20433;-72
2021/04/29 12:26:06;;;;;;;9.95;3.58;;;17.70;56.30;;;;;;6158524;23;20411;-71
2021/04/29 12:28:34;;;;;;;5.72;2.85;;;17.60;56.30;;;;;;6168486;23;20394;-72
2021/04/29 12:31:13;;;;;;;5.82;2.85;;;17.60;56.40;;;;;;6159841;23;20048;-72
2021/04/29 12:34:16;;;;;;;8.50;3.67;;;17.60;56.40;;;;;;6169242;23;20473;-72
2021/04/29 12:36:55;;;;;;;7.85;2.90;;;17.50;56.40;;;;;;6139852;23;20084;-72
2021/04/29 12:39:23;;;;;;;7.35;3.22;;;17.50;56.50;;;;;;6168943;23;20403;-71
2021/04/29 12:41:54;;;;;;;11.20;3.40;;;17.50;56.60;;;;;;6168919;23;20021;-71
2021/04/29 12:44:34;;;;;;;9.82;3.17;;;17.40;56.60;;;;;;6159903;23;20013;-71
2021/04/29 12:47:01;;;;;;;5.68;3.20;;;17.40;56.60;;;;;;6168870;23;20303;-71